Time;durP1;ratioP1;P1;durP2;ratioP2;P2;SDS_P1;SDS_P2;PMS_P1;PMS_P2;Temp;Humidity;BMP_temperature;BMP_pressure;BME280_temperature;BME280_humidity;BME280_pressure;Samples;Min_cycle;Max_cycle;Signal;HPM_P1;HPM_P2
2021/07/28 00:01:01;;;;;;;18.63;10.88;;;;;;;22.14;65.10;98811.34;263024;1092;115706;-68
2021/07/28 00:06:05;;;;;;;17.00;10.98;;;;;;;22.12;65.29;98805.27;263210;1092;115886;-71
2021/07/28 00:11:12;;;;;;;15.17;10.97;;;;;;;22.06;65.17;98795.96;263761;1092;115459;-75
2021/07/28 00:16:16;;;;;;;15.97;10.40;;;;;;;22.01;64.71;98792.08;263906;1092;115391;-69
2021/07/28 00:26:42;;;;;;;16.57;10.63;;;;;;;21.96;65.28;98782.61;263766;1093;115101;-75
2021/07/28 00:31:46;;;;;;;17.67;11.23;;;;;;;21.93;65.39;98771.28;262812;1092;115541;-67
2021/07/28 00:36:49;;;;;;;14.33;10.53;;;;;;;21.88;65.55;98776.39;263837;1092;115903;-69
2021/07/28 00:41:53;;;;;;;20.58;10.98;;;;;;;21.82;65.61;98772.50;263780;1092;116254;-67
2021/07/28 00:46:56;;;;;;;14.00;10.23;;;;;;;21.82;65.65;98775.20;263706;1093;116317;-70
2021/07/28 00:52:02;;;;;;;17.18;11.73;;;;;;;21.85;65.85;98764.02;263432;1092;118746;-70
2021/07/28 00:57:08;;;;;;;16.27;11.03;;;;;;;21.87;66.04;98763.84;263807;1093;115619;-71
2021/07/28 01:02:12;;;;;;;15.93;11.00;;;;;;;21.83;65.40;98763.34;263813;1092;115596;-70
2021/07/28 01:07:16;;;;;;;14.20;10.60;;;;;;;21.79;66.28;98759.30;263499;1093;115425;-69
2021/07/28 01:12:21;;;;;;;15.10;10.27;;;;;;;21.74;65.99;98758.98;263503;1093;115087;-72
2021/07/28 01:17:24;;;;;;;20.35;10.73;;;;;;;21.73;66.36;98755.41;261170;1091;115607;-71
2021/07/28 01:22:29;;;;;;;17.00;10.83;;;;;;;21.69;66.30;98739.69;263897;1090;115250;-72
2021/07/28 01:27:32;;;;;;;17.30;10.40;;;;;;;21.63;66.02;98762.04;263794;1092;114974;-75
2021/07/28 01:32:36;;;;;;;15.83;9.88;;;;;;;21.59;66.27;98748.00;263707;1093;115739;-71
2021/07/28 01:37:43;;;;;;;14.13;10.00;;;;;;;21.58;66.24;98748.19;263559;1093;115768;-72
2021/07/28 01:42:48;;;;;;;16.83;9.30;;;;;;;21.60;66.66;98748.84;263758;1093;115598;-71
2021/07/28 01:47:51;;;;;;;16.73;9.93;;;;;;;21.60;66.34;98752.42;263780;1093;114900;-70
2021/07/28 01:53:01;;;;;;;25.48;9.68;;;;;;;21.54;66.27;98742.27;263867;1092;115218;-71
2021/07/28 01:58:05;;;;;;;16.30;8.97;;;;;;;21.45;65.85;98736.02;263281;1092;115222;-71
2021/07/28 02:03:15;;;;;;;16.97;7.93;;;;;;;21.34;65.97;98741.79;261789;1092;115586;-69
2021/07/28 02:08:19;;;;;;;14.17;8.00;;;;;;;21.26;66.11;98733.63;261654;1092;115255;-71
2021/07/28 02:13:25;;;;;;;16.53;9.47;;;;;;;21.25;66.37;98742.77;261611;1092;114922;-69
2021/07/28 02:18:31;;;;;;;14.17;8.90;;;;;;;21.18;66.33;98747.18;261909;1093;115240;-72
2021/07/28 02:23:41;;;;;;;14.73;9.30;;;;;;;21.09;66.35;98749.03;262283;1092;114984;-72
2021/07/28 02:28:51;;;;;;;17.13;9.57;;;;;;;21.02;66.35;98742.61;261837;1092;114332;-71
2021/07/28 02:34:01;;;;;;;11.17;7.93;;;;;;;20.96;66.52;98743.31;261714;1093;115374;-69
2021/07/28 02:39:07;;;;;;;17.90;8.47;;;;;;;20.91;66.33;98734.84;261700;1092;114657;-69
2021/07/28 02:44:14;;;;;;;21.77;9.77;;;;;;;20.88;66.87;98729.76;261784;1091;114732;-71
2021/07/28 02:49:23;;;;;;;19.30;11.53;;;;;;;20.84;66.80;98733.82;261405;1092;115027;-74
2021/07/28 02:54:36;;;;;;;15.23;10.10;;;;;;;20.79;66.85;98732.47;261816;1092;115365;-73
2021/07/28 02:59:44;;;;;;;18.10;9.53;;;;;;;20.74;67.00;98739.39;261402;1092;115277;-74
2021/07/28 03:04:55;;;;;;;14.50;10.10;;;;;;;20.75;67.04;98754.59;261975;1091;114892;-71
2021/07/28 03:10:00;;;;;;;21.87;10.47;;;;;;;20.78;67.23;98746.14;261777;1091;115233;-70
2021/07/28 03:15:08;;;;;;;21.97;12.07;;;;;;;20.78;67.22;98741.58;261461;1092;115961;-71
2021/07/28 03:20:16;;;;;;;17.73;11.33;;;;;;;20.75;67.23;98732.95;261683;1091;115554;-70
2021/07/28 03:25:30;;;;;;;19.27;10.63;;;;;;;20.73;67.34;98753.94;261922;1093;115402;-74
2021/07/28 03:30:37;;;;;;;19.10;10.53;;;;;;;20.75;67.56;98763.58;261697;1093;114771;-70
2021/07/28 03:35:43;;;;;;;18.33;11.67;;;;;;;20.80;67.69;98782.00;261507;1093;116319;-71
2021/07/28 03:40:54;;;;;;;20.43;11.70;;;;;;;20.85;67.75;98779.63;261813;1093;114816;-70
2021/07/28 03:46:04;;;;;;;16.43;11.78;;;;;;;20.95;68.19;98771.35;261539;1092;115033;-72
2021/07/28 03:51:12;;;;;;;15.77;10.17;;;;;;;21.08;68.30;98768.16;261784;1092;114980;-71
2021/07/28 03:56:22;;;;;;;19.90;11.03;;;;;;;21.18;67.94;98774.25;261742;1091;118931;-73
2021/07/28 04:01:27;;;;;;;18.87;11.83;;;;;;;21.28;68.17;98760.55;261481;1092;115328;-71
2021/07/28 04:06:36;;;;;;;20.23;11.40;;;;;;;21.35;68.07;98770.55;261751;1093;115219;-72
2021/07/28 04:11:50;;;;;;;29.33;13.63;;;;;;;21.39;68.56;98761.05;261652;1092;115152;-72
2021/07/28 04:16:59;;;;;;;15.20;10.57;;;;;;;21.40;68.29;98748.36;261471;1093;115007;-72
2021/07/28 04:22:05;;;;;;;19.60;9.80;;;;;;;21.33;68.05;98740.08;262232;1092;115305;-73
2021/07/28 04:27:09;;;;;;;20.52;11.20;;;;;;;21.29;68.16;98719.76;263468;1093;115098;-71
2021/07/28 04:32:12;;;;;;;25.05;11.95;;;;;;;21.25;68.20;98723.83;263852;1092;115771;-70
2021/07/28 04:37:17;;;;;;;20.20;11.73;;;;;;;21.21;68.07;98720.63;263767;1092;115083;-69
2021/07/28 04:42:20;;;;;;;18.20;10.83;;;;;;;21.22;68.37;98702.52;263567;1092;115366;-69
2021/07/28 04:47:24;;;;;;;23.18;11.45;;;;;;;21.24;68.47;98703.20;263733;1092;115251;-72
2021/07/28 04:52:28;;;;;;;19.73;12.55;;;;;;;21.30;68.86;98691.69;263970;1092;115152;-77
2021/07/28 04:57:32;;;;;;;19.25;11.68;;;;;;;21.39;69.27;98684.41;263794;1093;115408;-74
2021/07/28 05:02:35;;;;;;;64.93;49.75;;;;;;;21.94;70.18;98684.41;263790;1092;115558;-72
2021/07/28 05:07:39;;;;;;;37.98;26.33;;;;;;;22.33;69.79;98677.28;261784;1091;115570;-72
2021/07/28 05:12:43;;;;;;;87.88;65.25;;;;;;;22.61;69.02;98670.28;263208;1092;115775;-73
2021/07/28 05:17:47;;;;;;;42.83;32.08;;;;;;;22.77;68.53;98660.34;261864;1092;115263;-72
2021/07/28 05:22:51;;;;;;;32.40;24.20;;;;;;;22.82;68.11;98672.31;263614;1093;115707;-72
2021/07/28 05:27:55;;;;;;;22.18;15.75;;;;;;;22.87;68.08;98661.77;263732;1093;115183;-72
2021/07/28 05:32:59;;;;;;;80.48;71.68;;;;;;;22.90;68.15;98650.55;263416;1091;115445;-74
2021/07/28 05:38:04;;;;;;;;;;;;;;;23.02;68.17;98655.56;263756;1093;116634;-72
2021/07/28 05:43:08;;;;;;;22.50;12.93;;;;;;;23.04;67.99;98656.23;263881;1093;101389;-73
2021/07/28 05:48:11;;;;;;;149.60;41.58;;;;;;;23.07;68.35;98655.87;263680;1093;115706;-71
2021/07/28 05:53:15;;;;;;;29.18;19.15;;;;;;;23.20;68.17;98657.92;263619;1092;115508;-69
2021/07/28 05:58:22;;;;;;;314.38;259.90;;;;;;;23.37;68.23;98654.88;263690;1092;115585;-71
2021/07/28 06:03:26;;;;;;;40.50;24.07;;;;;;;23.43;67.88;98657.86;263465;1092;115888;-72
2021/07/28 06:08:30;;;;;;;33.03;19.55;;;;;;;23.50;68.03;98653.36;263747;1092;115577;-71
2021/07/28 06:13:33;;;;;;;60.90;25.98;;;;;;;23.55;67.94;98648.22;263631;1092;115186;-71
2021/07/28 06:18:37;;;;;;;48.65;24.98;;;;;;;23.65;67.96;98656.09;263136;1093;115110;-70
2021/07/28 06:23:42;;;;;;;54.73;25.20;;;;;;;23.73;67.91;98662.28;261861;1092;115965;-70
2021/07/28 06:28:51;;;;;;;53.70;26.10;;;;;;;23.76;67.29;98661.91;261964;1091;114907;-71
2021/07/28 06:34:05;;;;;;;43.03;24.80;;;;;;;23.79;67.82;98663.41;261938;1091;115079;-69
2021/07/28 06:39:08;;;;;;;44.85;23.55;;;;;;;23.83;68.02;98662.00;263755;1092;115330;-70
2021/07/28 06:44:12;;;;;;;108.48;34.48;;;;;;;23.83;67.59;98659.28;263698;1093;115235;-72
2021/07/28 06:49:15;;;;;;;588.80;186.28;;;;;;;23.86;67.28;98664.34;262914;1092;115545;-69
2021/07/28 06:54:19;;;;;;;26.38;17.08;;;;;;;23.93;67.47;98650.84;263323;1092;116291;-71
2021/07/28 06:59:25;;;;;;;37.50;18.60;;;;;;;24.02;67.45;98650.55;262582;1091;114831;-74
2021/07/28 07:04:34;;;;;;;55.27;23.00;;;;;;;24.06;67.24;98643.68;261281;1092;114679;-72
2021/07/28 07:09:45;;;;;;;27.33;14.07;;;;;;;24.13;66.77;98640.20;261712;1092;115307;-72
2021/07/28 07:15:01;;;;;;;27.43;15.10;;;;;;;24.17;66.46;98636.06;261523;1092;114781;-71
2021/07/28 07:20:08;;;;;;;;;;;;;;;24.23;66.28;98636.13;262131;1093;115728;-71
2021/07/28 07:25:21;;;;;;;14.53;7.80;;;;;;;24.25;65.89;98631.36;263829;1092;102677;-73
2021/07/28 07:30:25;;;;;;;112.10;92.55;;;;;;;24.29;65.95;98634.53;263791;1090;116583;-70
2021/07/28 07:35:28;;;;;;;16.78;10.58;;;;;;;24.37;65.68;98631.67;263827;1092;117138;-69
2021/07/28 07:40:32;;;;;;;16.03;9.30;;;;;;;24.48;65.73;98624.91;263617;1092;115228;-72
2021/07/28 07:45:36;;;;;;;19.18;10.30;;;;;;;24.57;65.11;98610.14;262980;1093;117451;-71
2021/07/28 07:50:41;;;;;;;151.47;114.77;;;;;;;24.69;64.99;98611.27;263806;1093;115420;-71
2021/07/28 07:55:45;;;;;;;33.18;21.60;;;;;;;24.77;64.81;98610.31;263759;1093;115690;-72
2021/07/28 08:00:48;;;;;;;58.33;40.30;;;;;;;24.81;64.72;98599.88;263576;1092;115381;-71
2021/07/28 08:05:52;;;;;;;21.05;15.30;;;;;;;24.86;64.50;98594.66;262851;1092;115400;-73
2021/07/28 08:10:57;;;;;;;65.95;49.33;;;;;;;24.91;64.56;98594.92;263860;1093;115516;-71
2021/07/28 08:16:02;;;;;;;120.73;91.80;;;;;;;25.01;64.44;98587.25;263494;1090;115793;-72
2021/07/28 08:21:08;;;;;;;45.33;31.23;;;;;;;25.12;63.96;98594.89;263688;1093;115379;-73
2021/07/28 08:26:13;;;;;;;19.70;14.90;;;;;;;25.15;63.79;98590.94;263604;1092;115260;-77
2021/07/28 08:31:17;;;;;;;15.63;9.53;;;;;;;25.21;63.76;98590.98;263273;1092;115748;-74
2021/07/28 08:36:21;;;;;;;14.73;9.05;;;;;;;25.33;63.96;98587.69;263771;1093;115248;-71
2021/07/28 08:41:27;;;;;;;15.63;11.70;;;;;;;25.38;63.42;98579.77;263663;1092;114905;-74
2021/07/28 08:46:31;;;;;;;16.83;7.17;;;;;;;25.43;63.12;98585.44;263653;1093;115258;-72
2021/07/28 08:51:35;;;;;;;15.37;7.17;;;;;;;25.51;62.81;98573.52;263415;1092;115772;-74
2021/07/28 08:56:40;;;;;;;12.90;6.17;;;;;;;25.61;62.82;98572.13;263734;1090;114704;-73
2021/07/28 09:01:43;;;;;;;14.70;6.33;;;;;;;25.73;62.80;98565.02;263699;1093;115260;-72
2021/07/28 09:06:47;;;;;;;133.98;112.70;;;;;;;25.88;62.35;98573.09;263712;1093;117250;-71
2021/07/28 09:11:53;;;;;;;;;;;;;;;26.03;62.17;98569.36;263792;1090;116937;-70
2021/07/28 09:17:19;;;;;;;18.50;7.40;;;;;;;26.16;61.49;98564.77;263444;1092;101849;-70
2021/07/28 09:22:31;;;;;;;12.00;5.67;;;;;;;26.29;61.48;98574.88;263318;1093;115821;-72
2021/07/28 09:27:49;;;;;;;18.10;12.33;;;;;;;26.37;60.67;98560.18;262024;1093;115510;-70
2021/07/28 09:32:58;;;;;;;10.17;5.77;;;;;;;26.45;60.25;98561.86;263441;1092;115786;-71
2021/07/28 09:38:03;;;;;;;11.70;5.40;;;;;;;26.52;59.85;98558.11;262934;1093;115909;-72
2021/07/28 09:43:07;;;;;;;19.27;11.13;;;;;;;26.64;59.51;98564.63;263622;1093;115196;-71
2021/07/28 09:48:11;;;;;;;13.88;7.13;;;;;;;26.75;58.94;98552.23;263106;1092;115469;-71
2021/07/28 09:53:14;;;;;;;9.18;5.13;;;;;;;26.88;58.35;98565.04;263334;1091;115882;-71
2021/07/28 09:58:18;;;;;;;9.73;5.10;;;;;;;27.01;58.24;98556.00;263738;1092;114901;-72
2021/07/28 10:03:22;;;;;;;12.95;5.90;;;;;;;27.15;58.09;98554.94;263391;1090;116332;-73
2021/07/28 10:08:26;;;;;;;10.83;4.68;;;;;;;27.28;57.50;98552.18;263663;1092;115298;-74
2021/07/28 10:13:30;;;;;;;8.63;4.90;;;;;;;27.45;57.28;98557.18;263431;1092;114893;-71
2021/07/28 10:18:33;;;;;;;15.88;5.53;;;;;;;27.64;56.83;98544.47;263348;1090;115103;-71
2021/07/28 10:23:37;;;;;;;11.95;4.35;;;;;;;27.83;56.24;98540.84;262921;1093;115183;-69
2021/07/28 10:28:46;;;;;;;;;;;;;;;27.99;56.12;98534.86;263517;1092;115564;-72
2021/07/28 10:33:54;;;;;;;9.63;5.33;;;;;;;28.11;55.53;98529.52;263619;1092;101893;-71
2021/07/28 10:38:58;;;;;;;15.77;9.50;;;;;;;28.28;55.35;98527.08;263738;1092;115050;-70
2021/07/28 10:44:13;;;;;;;12.67;6.07;;;;;;;28.44;55.26;98523.83;263552;1093;115495;-75
2021/07/28 10:49:36;;;;;;;15.20;7.90;;;;;;;28.63;55.27;98521.97;263660;1092;115144;-72
2021/07/28 10:54:45;;;;;;;11.20;6.27;;;;;;;28.70;54.90;98530.99;263874;1093;115789;-73
2021/07/28 10:59:49;;;;;;;17.27;8.17;;;;;;;28.84;54.33;98520.75;263963;1090;115198;-72
2021/07/28 11:05:17;;;;;;;13.88;4.85;;;;;;;28.85;53.74;98527.89;263963;1092;114688;-71
2021/07/28 11:10:21;;;;;;;18.10;12.13;;;;;;;28.97;53.39;98523.36;263940;1092;115539;-70
2021/07/28 11:15:28;;;;;;;13.90;5.07;;;;;;;29.20;53.38;98519.95;263826;1093;116382;-73
2021/07/28 11:20:32;;;;;;;25.25;10.73;;;;;;;29.47;52.89;98514.16;263940;1090;115169;-75
2021/07/28 11:25:36;;;;;;;13.23;5.90;;;;;;;29.51;52.04;98522.77;263883;1092;115159;-72
2021/07/28 11:30:42;;;;;;;13.48;5.73;;;;;;;29.58;51.86;98518.03;263848;1093;115395;-72
2021/07/28 11:35:48;;;;;;;14.17;5.40;;;;;;;29.75;52.43;98524.58;263953;1091;117016;-72
2021/07/28 11:40:54;;;;;;;14.18;6.05;;;;;;;29.92;51.81;98519.28;263528;1090;116469;-73
2021/07/28 11:46:01;;;;;;;99.53;85.23;;;;;;;30.08;51.84;98518.63;261486;1092;115127;-71
2021/07/28 11:51:07;;;;;;;26.25;15.48;;;;;;;30.27;51.98;98516.70;262574;1092;115505;-69
2021/07/28 11:56:15;;;;;;;12.83;7.53;;;;;;;30.48;52.22;98506.23;263600;1090;115792;-72
2021/07/28 12:01:23;;;;;;;16.70;6.00;;;;;;;30.50;50.97;98504.89;263891;1090;115414;-74
2021/07/28 12:06:34;;;;;;;12.03;5.37;;;;;;;30.54;50.29;98505.28;263717;1091;115425;-69
2021/07/28 12:12:02;;;;;;;12.17;5.20;;;;;;;30.36;50.18;98503.45;263996;1092;114778;-72
2021/07/28 12:17:20;;;;;;;14.53;4.97;;;;;;;30.33;49.96;98498.42;263885;1092;115269;-76
2021/07/28 12:22:33;;;;;;;10.80;5.10;;;;;;;30.49;50.21;98485.92;263776;1093;115121;-77
2021/07/28 12:28:04;;;;;;;20.08;6.28;;;;;;;30.71;50.41;98483.41;262673;1090;115076;-72
2021/07/28 12:33:10;;;;;;;10.93;5.17;;;;;;;30.91;49.46;98472.08;263813;1093;115331;-74
2021/07/28 12:38:18;;;;;;;11.53;4.93;;;;;;;30.97;48.66;98473.88;263827;1088;114848;-73
2021/07/28 12:43:36;;;;;;;11.40;4.90;;;;;;;31.12;48.48;98476.14;263660;1090;114895;-71
2021/07/28 12:48:43;;;;;;;15.20;5.10;;;;;;;31.27;48.26;98458.03;263424;1092;115259;-71
2021/07/28 12:53:47;;;;;;;11.73;5.00;;;;;;;31.46;48.27;98455.98;263347;1092;114857;-69
2021/07/28 12:58:50;;;;;;;13.47;5.63;;;;;;;31.60;48.06;98453.78;263417;1092;116141;-75
2021/07/28 13:03:55;;;;;;;14.00;5.40;;;;;;;31.80;47.59;98445.08;263933;1092;115062;-75
2021/07/28 13:09:00;;;;;;;11.07;4.97;;;;;;;32.00;47.30;98452.90;263369;1093;114666;-73
2021/07/28 13:14:03;;;;;;;;;;;;;;;32.21;47.08;98443.89;263896;1093;115191;-71
2021/07/28 13:19:08;;;;;;;16.75;5.38;;;;;;;32.41;46.79;98440.64;263332;1092;103063;-72
2021/07/28 13:24:11;;;;;;;;;;;;;;;32.61;45.94;98442.05;263533;1093;114889;-72
2021/07/28 13:29:16;;;;;;;12.97;6.63;;;;;;;32.69;45.56;98439.71;263617;1091;101000;-71
2021/07/28 13:34:19;;;;;;;11.17;5.60;;;;;;;32.60;45.25;98437.63;262388;1092;115879;-70
2021/07/28 13:39:23;;;;;;;;;;;;;;;32.68;45.21;98443.56;262358;1090;114851;-72
2021/07/28 13:44:27;;;;;;;13.93;5.30;;;;;;;32.52;45.09;98430.64;261709;1092;102904;-70
2021/07/28 13:49:31;;;;;;;14.90;5.13;;;;;;;32.56;44.71;98429.04;262459;1091;115039;-72
2021/07/28 13:54:34;;;;;;;;;;;;;;;32.76;44.87;98420.23;263931;1090;115399;-71
2021/07/28 13:59:40;;;;;;;11.47;5.27;;;;;;;32.92;44.69;98419.36;264020;1092;101963;-72
2021/07/28 14:04:44;;;;;;;13.47;5.20;;;;;;;33.11;44.54;98413.55;263867;1090;116015;-72
2021/07/28 14:09:48;;;;;;;13.80;5.37;;;;;;;33.23;44.27;98403.23;263870;1092;115243;-71
2021/07/28 14:14:52;;;;;;;11.87;5.03;;;;;;;33.33;43.59;98406.11;263899;1092;115056;-71
2021/07/28 14:19:55;;;;;;;9.63;5.13;;;;;;;33.41;43.22;98400.13;263870;1090;115231;-73
2021/07/28 14:24:59;;;;;;;12.50;8.23;;;;;;;33.43;43.08;98397.12;263918;1090;115014;-71
2021/07/28 14:30:03;;;;;;;17.23;7.87;;;;;;;33.43;42.78;98399.88;263954;1092;115641;-71
2021/07/28 14:35:07;;;;;;;11.67;6.03;;;;;;;33.35;42.78;98386.52;263800;1092;115588;-72
2021/07/28 14:40:11;;;;;;;13.03;5.90;;;;;;;33.21;42.64;98384.17;263865;1091;115673;-74
2021/07/28 14:45:17;;;;;;;21.00;6.63;;;;;;;33.03;42.48;98370.73;263644;1090;115410;-69
2021/07/28 14:50:27;;;;;;;15.70;6.83;;;;;;;32.82;42.45;98363.27;263950;1090;115108;-70
2021/07/28 14:55:33;;;;;;;11.77;5.40;;;;;;;32.59;42.29;98365.16;262821;1092;114992;-69
2021/07/28 15:00:37;;;;;;;11.13;5.10;;;;;;;32.38;41.94;98365.94;262641;1091;115133;-70
2021/07/28 15:05:40;;;;;;;10.43;4.47;;;;;;;32.15;41.62;98375.22;263697;1090;115009;-72
2021/07/28 15:10:44;;;;;;;20.93;9.13;;;;;;;31.90;41.46;98376.48;263970;1090;115181;-75
2021/07/28 15:15:47;;;;;;;16.97;6.23;;;;;;;31.68;41.58;98381.00;263211;1091;115696;-70
2021/07/28 15:20:51;;;;;;;;;;;;;;;31.48;41.40;98379.54;263038;1090;117544;-73
2021/07/28 15:25:55;;;;;;;15.40;5.70;;;;;;;31.31;42.19;98373.13;262844;1090;103359;-69
2021/07/28 15:30:58;;;;;;;;;;;;;;;31.12;42.09;98364.26;263344;1092;115416;-70
2021/07/28 15:36:02;;;;;;;41.97;33.50;;;;;;;30.94;42.82;98367.16;262799;1092;102918;-73
2021/07/28 15:41:05;;;;;;;17.20;9.30;;;;;;;30.78;42.58;98358.62;263961;1093;117042;-70
2021/07/28 15:46:09;;;;;;;20.80;6.75;;;;;;;30.67;42.63;98353.09;263814;1093;114902;-71
2021/07/28 15:51:12;;;;;;;13.73;5.00;;;;;;;30.57;42.42;98359.20;263894;1092;115171;-73
2021/07/28 15:56:16;;;;;;;14.13;5.63;;;;;;;30.49;42.49;98356.84;263234;1092;116153;-70
2021/07/28 16:01:20;;;;;;;13.57;5.60;;;;;;;30.37;42.85;98356.86;263433;1092;115647;-69
2021/07/28 16:06:24;;;;;;;11.27;5.40;;;;;;;30.27;42.96;98354.72;263526;1093;115451;-73
2021/07/28 16:11:30;;;;;;;13.25;4.98;;;;;;;30.15;42.81;98340.94;263896;1090;115241;-72
2021/07/28 16:16:40;;;;;;;13.30;5.70;;;;;;;30.05;42.94;98334.38;263987;1092;114956;-71
2021/07/28 16:21:44;;;;;;;9.23;5.27;;;;;;;29.92;43.13;98325.30;263860;1091;115510;-73
2021/07/28 16:26:48;;;;;;;21.75;6.98;;;;;;;29.84;43.40;98325.66;263165;1090;114591;-71
2021/07/28 16:32:11;;;;;;;14.50;6.00;;;;;;;29.72;43.84;98322.05;263581;1090;115350;-75
2021/07/28 16:37:15;;;;;;;11.93;5.33;;;;;;;29.63;44.19;98328.98;263398;1093;116514;-74
2021/07/28 16:42:18;;;;;;;15.48;5.83;;;;;;;29.53;44.46;98335.00;263827;1091;115057;-72
2021/07/28 16:47:22;;;;;;;24.10;6.25;;;;;;;29.42;44.65;98344.88;263908;1090;115150;-73
2021/07/28 16:52:25;;;;;;;;;;;;;;;29.31;45.06;98339.33;263994;1092;114805;-71
2021/07/28 16:57:30;;;;;;;17.78;6.60;;;;;;;29.20;45.62;98346.45;263413;1093;101887;-73
2021/07/28 17:02:42;;;;;;;18.27;7.23;;;;;;;29.10;46.05;98354.39;263568;1092;115305;-71
2021/07/28 17:07:48;;;;;;;21.20;7.83;;;;;;;28.99;46.55;98353.23;263875;1090;115183;-70
2021/07/28 17:12:52;;;;;;;52.17;44.67;;;;;;;28.92;46.61;98358.80;263829;1093;115117;-72
2021/07/28 17:17:58;;;;;;;;;;;;;;;28.90;47.04;98349.13;263878;1093;115410;-72
2021/07/28 17:23:01;;;;;;;22.33;11.97;;;;;;;28.79;47.49;98339.79;264051;1090;101955;-72
2021/07/28 17:28:05;;;;;;;302.53;267.58;;;;;;;28.73;47.71;98347.02;263632;1093;115339;-73
2021/07/28 17:33:09;;;;;;;37.68;30.80;;;;;;;28.69;48.21;98345.80;262016;1090;116865;-71
2021/07/28 17:38:36;;;;;;;38.17;25.83;;;;;;;28.64;48.24;98339.36;263226;1093;115336;-72
2021/07/28 17:43:45;;;;;;;37.87;21.60;;;;;;;28.57;48.94;98341.31;263712;1091;115077;-74
2021/07/28 17:48:55;;;;;;;26.60;16.60;;;;;;;28.51;48.77;98352.13;263875;1090;115278;-73
2021/07/28 17:54:00;;;;;;;59.53;49.33;;;;;;;28.45;48.98;98363.98;263840;1092;116798;-74
2021/07/28 17:59:04;;;;;;;25.57;16.63;;;;;;;28.38;49.41;98362.35;264046;1092;115084;-72
2021/07/28 18:04:18;;;;;;;23.15;14.85;;;;;;;28.32;49.65;98380.50;263908;1090;115387;-70
2021/07/28 18:09:22;;;;;;;83.97;72.17;;;;;;;28.26;50.25;98393.21;263898;1092;115491;-76
2021/07/28 18:14:28;;;;;;;33.50;22.37;;;;;;;28.20;50.61;98391.37;263905;1090;115199;-76
2021/07/28 18:19:32;;;;;;;23.50;12.73;;;;;;;28.18;50.57;98411.80;263688;1092;115569;-68
2021/07/28 18:24:36;;;;;;;19.15;9.08;;;;;;;28.16;50.52;98428.45;263891;1090;115863;-70
2021/07/28 18:29:39;;;;;;;15.98;7.73;;;;;;;28.16;50.36;98436.67;263914;1089;115336;-71
2021/07/28 18:34:43;;;;;;;16.53;7.60;;;;;;;28.15;50.38;98425.92;262682;1090;115763;-72
2021/07/28 18:39:46;;;;;;;15.60;7.33;;;;;;;28.10;50.73;98404.72;263837;1090;115811;-73
2021/07/28 18:44:50;;;;;;;17.15;7.25;;;;;;;28.05;50.51;98419.05;263356;1090;115362;-77
2021/07/28 18:49:56;;;;;;;16.10;7.77;;;;;;;28.00;50.35;98420.80;263879;1092;115182;-71
2021/07/28 18:55:00;;;;;;;224.68;173.90;;;;;;;27.96;50.68;98417.67;263851;1090;114853;-69
2021/07/28 19:00:07;;;;;;;26.80;14.27;;;;;;;27.89;50.73;98416.89;263878;1090;116589;-72
2021/07/28 19:05:11;;;;;;;18.37;9.03;;;;;;;27.84;50.43;98419.43;263921;1090;115414;-79
2021/07/28 19:10:15;;;;;;;227.78;203.15;;;;;;;27.79;50.90;98420.11;263898;1090;115357;-69
2021/07/28 19:15:22;;;;;;;18.65;10.20;;;;;;;27.74;50.78;98419.05;263813;1090;115863;-68
2021/07/28 19:20:27;;;;;;;16.63;8.43;;;;;;;27.67;51.01;98423.73;263860;1092;115526;-78
2021/07/28 19:25:30;;;;;;;15.20;7.33;;;;;;;27.59;50.99;98419.38;263873;1091;115086;-78
2021/07/28 19:30:36;;;;;;;20.37;7.50;;;;;;;27.50;51.30;98428.88;263877;1088;115398;-75
2021/07/28 19:35:40;;;;;;;16.17;7.50;;;;;;;27.42;51.22;98427.25;263809;1092;115259;-76
2021/07/28 19:40:43;;;;;;;12.40;7.25;;;;;;;27.33;51.78;98442.21;263861;1092;116981;-73
2021/07/28 19:45:50;;;;;;;15.77;7.27;;;;;;;27.17;51.45;98478.22;263846;1090;115435;-70
2021/07/28 19:50:53;;;;;;;13.67;7.53;;;;;;;27.01;51.89;98504.09;263854;1092;114775;-72
2021/07/28 19:55:57;;;;;;;18.18;8.75;;;;;;;26.83;52.13;98471.98;263252;1092;115009;-73
2021/07/28 20:01:02;;;;;;;17.55;9.45;;;;;;;26.62;52.77;98473.07;263279;1092;115426;-72
2021/07/28 20:06:07;;;;;;;22.67;9.63;;;;;;;26.35;52.90;98480.41;263863;1090;115033;-68
2021/07/28 20:11:10;;;;;;;16.50;8.90;;;;;;;26.04;53.69;98486.48;264094;1090;115119;-71
2021/07/28 20:16:14;;;;;;;20.28;8.10;;;;;;;25.82;54.00;98505.75;262999;1090;115515;-69
2021/07/28 20:21:22;;;;;;;17.58;8.18;;;;;;;25.63;54.21;98503.77;263074;1093;115469;-68
2021/07/28 20:26:26;;;;;;;15.63;7.57;;;;;;;25.46;54.37;98504.13;263912;1090;114735;-71
2021/07/28 20:31:30;;;;;;;18.28;6.90;;;;;;;25.30;54.55;98487.29;263951;1090;115721;-66
2021/07/28 20:36:34;;;;;;;12.50;5.98;;;;;;;25.17;54.79;98474.45;263981;1090;115638;-70
2021/07/28 20:41:38;;;;;;;11.98;6.23;;;;;;;24.95;54.94;98477.25;263952;1090;115507;-68
2021/07/28 20:46:44;;;;;;;15.00;6.73;;;;;;;24.85;55.19;98484.11;264032;1090;115124;-68
2021/07/28 20:51:48;;;;;;;13.00;6.48;;;;;;;24.72;55.54;98493.86;263907;1091;115278;-69
2021/07/28 20:56:51;;;;;;;13.30;6.23;;;;;;;24.68;55.79;98516.23;263448;1090;115168;-71
2021/07/28 21:01:55;;;;;;;12.20;6.70;;;;;;;24.62;55.95;98528.74;263919;1089;115993;-72
2021/07/28 21:06:59;;;;;;;14.83;6.28;;;;;;;24.61;56.12;98553.45;263948;1090;114827;-69
2021/07/28 21:12:03;;;;;;;9.83;6.78;;;;;;;24.57;56.39;98539.39;263960;1091;115989;-67
2021/07/28 21:17:07;;;;;;;17.70;8.40;;;;;;;24.54;56.48;98537.90;263978;1092;115095;-71
2021/07/28 21:22:10;;;;;;;12.88;6.63;;;;;;;24.50;56.65;98562.98;263913;1091;115353;-69
2021/07/28 21:27:14;;;;;;;20.73;6.30;;;;;;;24.45;56.77;98566.27;263902;1090;114745;-71
2021/07/28 21:32:20;;;;;;;11.80;6.23;;;;;;;24.38;57.00;98573.51;263998;1093;115735;-70
2021/07/28 21:37:26;;;;;;;11.80;6.57;;;;;;;24.33;57.11;98573.27;263872;1090;115118;-71
2021/07/28 21:42:33;;;;;;;13.27;6.70;;;;;;;24.26;57.27;98567.77;263157;1090;115160;-70
2021/07/28 21:47:37;;;;;;;8.50;5.90;;;;;;;24.24;57.34;98552.66;262730;1092;115304;-71
2021/07/28 21:52:52;;;;;;;16.03;6.30;;;;;;;24.24;57.63;98568.98;262768;1093;114546;-70
2021/07/28 21:58:08;;;;;;;12.07;6.33;;;;;;;24.23;57.78;98584.46;263955;1092;115057;-75
2021/07/28 22:03:16;;;;;;;11.23;6.37;;;;;;;24.20;58.06;98582.13;263045;1089;115816;-68
2021/07/28 22:08:27;;;;;;;11.23;6.57;;;;;;;24.18;58.21;98581.47;261369;1093;115431;-70
2021/07/28 22:13:34;;;;;;;11.63;6.50;;;;;;;24.08;58.22;98594.53;261564;1091;114727;-70
2021/07/28 22:18:41;;;;;;;13.07;6.57;;;;;;;24.00;58.58;98600.11;261668;1091;114854;-71
2021/07/28 22:23:56;;;;;;;11.23;7.27;;;;;;;23.91;58.84;98603.96;262003;1090;115775;-71
2021/07/28 22:29:03;;;;;;;14.15;7.13;;;;;;;23.83;59.05;98594.05;262020;1093;114855;-72
2021/07/28 22:34:08;;;;;;;11.80;6.83;;;;;;;23.80;59.38;98597.98;261859;1092;115695;-73
2021/07/28 22:39:23;;;;;;;12.20;7.20;;;;;;;23.78;59.63;98596.52;261712;1092;114859;-67
2021/07/28 22:44:29;;;;;;;13.13;7.17;;;;;;;23.78;60.05;98607.39;261911;1090;115741;-68
2021/07/28 22:54:57;;;;;;;12.90;8.20;;;;;;;23.65;60.24;98604.47;262161;1092;115335;-71
2021/07/28 23:00:28;;;;;;;16.87;8.03;;;;;;;23.55;60.52;98623.77;261860;1090;114991;-69
2021/07/28 23:11:09;;;;;;;12.50;7.63;;;;;;;23.40;60.92;98637.34;261896;1092;115585;-72
2021/07/28 23:16:13;;;;;;;12.77;7.77;;;;;;;23.38;61.24;98633.98;262002;1092;116593;-70
2021/07/28 23:21:19;;;;;;;16.93;8.37;;;;;;;23.35;61.56;98623.50;262400;1089;116045;-68
2021/07/28 23:26:23;;;;;;;13.73;8.87;;;;;;;23.25;61.71;98620.21;261632;1089;116085;-69